Time;durP1;ratioP1;P1;durP2;ratioP2;P2;SDS_P1;SDS_P2;PMS_P1;PMS_P2;Temp;Humidity;BMP_temperature;BMP_pressure;BME280_temperature;BME280_humidity;BME280_pressure;Samples;Min_cycle;Max_cycle;Signal;HPM_P1;HPM_P2
2022/03/04 00:01:13;;;;;;;16.98;7.53;;;;;;;;;;5086987;28;20031;-49
2022/03/04 00:03:39;;;;;;;17.48;7.43;;;;;;;;;;5088537;28;20111;-48
2022/03/04 00:06:05;;;;;;;15.23;8.07;;;;;;;;;;5086018;28;20024;-48
2022/03/04 00:08:31;;;;;;;17.70;7.55;;;;;;;;;;5087420;28;20035;-51
2022/03/04 00:10:57;;;;;;;17.67;7.05;;;;;;;;;;5083916;28;20452;-47
2022/03/04 00:13:23;;;;;;;14.93;7.05;;;;;;;;;;5089530;28;20032;-48
2022/03/04 00:15:49;;;;;;;16.58;7.35;;;;;;;;;;5092353;28;20039;-52
2022/03/04 00:18:15;;;;;;;11.95;6.57;;;;;;;;;;5088519;28;20111;-52
2022/03/04 00:20:41;;;;;;;21.10;8.20;;;;;;;;;;5085693;28;20054;-48
2022/03/04 00:23:07;;;;;;;15.93;6.80;;;;;;;;;;5089760;28;20460;-49
2022/03/04 00:25:33;;;;;;;13.88;6.60;;;;;;;;;;5092845;28;20101;-48
2022/03/04 00:27:59;;;;;;;14.88;6.97;;;;;;;;;;5084830;28;20028;-47
2022/03/04 00:30:25;;;;;;;14.20;6.45;;;;;;;;;;5089369;28;20042;-49
2022/03/04 00:32:51;;;;;;;15.50;7.22;;;;;;;;;;5091275;28;20023;-48
2022/03/04 00:35:18;;;;;;;10.95;6.18;;;;;;;;;;5080743;28;20047;-48
2022/03/04 00:37:44;;;;;;;13.40;6.40;;;;;;;;;;5089583;28;20055;-51
2022/03/04 00:40:10;;;;;;;14.98;6.70;;;;;;;;;;5088246;28;20024;-52
2022/03/04 00:42:36;;;;;;;12.70;6.97;;;;;;;;;;5080454;28;20388;-47
2022/03/04 00:45:03;;;;;;;8.30;5.68;;;;;;;;;;5084575;28;20362;-47
2022/03/04 00:47:29;;;;;;;17.73;6.50;;;;;;;;;;5082290;28;20024;-48
2022/03/04 00:49:55;;;;;;;11.55;6.32;;;;;;;;;;5083755;28;20507;-48
2022/03/04 00:52:21;;;;;;;13.65;6.03;;;;;;;;;;5082796;28;20139;-48
2022/03/04 00:54:47;;;;;;;14.32;6.43;;;;;;;;;;5092307;28;20102;-53
2022/03/04 00:57:13;;;;;;;10.82;6.05;;;;;;;;;;5075661;28;20492;-49
2022/03/04 00:59:39;;;;;;;12.02;6.50;;;;;;;;;;5086119;28;20028;-53
2022/03/04 01:02:05;;;;;;;12.68;6.43;;;;;;;;;;5075802;28;20099;-47
2022/03/04 01:04:31;;;;;;;12.55;6.70;;;;;;;;;;5088388;28;20453;-49
2022/03/04 01:06:57;;;;;;;13.70;6.55;;;;;;;;;;5081302;28;20031;-51
2022/03/04 01:09:23;;;;;;;11.13;5.82;;;;;;;;;;5092006;28;20025;-47
2022/03/04 01:11:49;;;;;;;16.48;6.43;;;;;;;;;;5084614;28;20130;-52
2022/03/04 01:14:15;;;;;;;12.90;6.15;;;;;;;;;;5083842;28;20365;-50
2022/03/04 01:16:41;;;;;;;11.85;6.53;;;;;;;;;;5080199;28;20086;-50
2022/03/04 01:19:07;;;;;;;10.25;5.60;;;;;;;;;;5077321;28;20111;-47
2022/03/04 01:21:34;;;;;;;11.57;6.28;;;;;;;;;;5086006;28;21852;-47
2022/03/04 01:24:00;;;;;;;11.45;6.13;;;;;;;;;;5090759;28;20081;-47
2022/03/04 01:26:26;;;;;;;10.73;5.43;;;;;;;;;;5089189;28;20430;-47
2022/03/04 01:28:52;;;;;;;13.40;5.45;;;;;;;;;;5087489;28;20206;-47
2022/03/04 01:31:18;;;;;;;11.95;5.20;;;;;;;;;;5089948;28;20028;-49
2022/03/04 01:33:44;;;;;;;12.48;5.45;;;;;;;;;;5082895;28;20040;-48
2022/03/04 01:36:10;;;;;;;12.18;5.18;;;;;;;;;;5085125;28;20032;-50
2022/03/04 01:38:36;;;;;;;9.10;4.75;;;;;;;;;;5080010;28;20050;-48
2022/03/04 01:41:02;;;;;;;15.57;5.72;;;;;;;;;;5093159;28;20020;-49
2022/03/04 01:43:28;;;;;;;13.25;5.22;;;;;;;;;;5083093;28;20028;-50
2022/03/04 01:45:54;;;;;;;8.27;4.78;;;;;;;;;;5092916;28;20417;-51
2022/03/04 01:48:21;;;;;;;10.13;5.20;;;;;;;;;;5090853;28;20035;-48
2022/03/04 01:50:48;;;;;;;10.63;4.78;;;;;;;;;;5093495;28;20051;-50
2022/03/04 01:53:14;;;;;;;8.50;4.68;;;;;;;;;;5090425;28;20049;-48
2022/03/04 01:55:40;;;;;;;7.85;4.40;;;;;;;;;;5084104;28;20028;-48
2022/03/04 01:58:06;;;;;;;7.38;4.60;;;;;;;;;;5092392;28;20058;-50
2022/03/04 02:00:32;;;;;;;8.90;4.30;;;;;;;;;;5077421;28;20050;-51
2022/03/04 02:03:00;;;;;;;9.35;4.10;;;;;;;;;;5084979;28;20059;-47
2022/03/04 02:05:26;;;;;;;9.55;4.40;;;;;;;;;;5089479;28;20036;-47
2022/03/04 02:07:52;;;;;;;9.48;3.65;;;;;;;;;;5084353;28;20761;-47
2022/03/04 02:10:18;;;;;;;12.07;4.72;;;;;;;;;;5090993;28;20056;-47
2022/03/04 02:12:44;;;;;;;10.68;4.32;;;;;;;;;;5079126;28;20050;-48
2022/03/04 02:15:10;;;;;;;7.70;4.10;;;;;;;;;;5092222;28;20036;-48
2022/03/04 02:17:36;;;;;;;10.57;4.20;;;;;;;;;;5075490;28;20032;-48
2022/03/04 02:20:03;;;;;;;7.18;4.13;;;;;;;;;;5089055;28;20024;-49
2022/03/04 02:22:30;;;;;;;7.55;4.25;;;;;;;;;;5083111;28;20024;-47
2022/03/04 02:24:56;;;;;;;10.10;4.53;;;;;;;;;;5090930;28;20024;-47
2022/03/04 02:27:22;;;;;;;11.50;4.82;;;;;;;;;;5090400;28;20372;-50
2022/03/04 02:29:48;;;;;;;9.32;4.72;;;;;;;;;;5081473;28;20028;-50
2022/03/04 02:32:14;;;;;;;7.80;3.83;;;;;;;;;;5080658;28;20029;-47
2022/03/04 02:34:39;;;;;;;7.32;3.97;;;;;;;;;;5083545;28;20029;-50
2022/03/04 02:37:06;;;;;;;7.85;4.40;;;;;;;;;;5083869;28;20115;-50
2022/03/04 02:39:32;;;;;;;11.50;4.30;;;;;;;;;;5085804;28;20115;-49
2022/03/04 02:41:58;;;;;;;9.60;4.13;;;;;;;;;;5089497;28;20024;-51
2022/03/04 02:44:24;;;;;;;11.20;4.10;;;;;;;;;;5088230;28;20021;-48
2022/03/04 02:46:50;;;;;;;5.85;3.40;;;;;;;;;;5078748;28;20144;-49
2022/03/04 02:49:16;;;;;;;7.95;3.67;;;;;;;;;;5090660;28;20028;-52
2022/03/04 02:51:42;;;;;;;5.72;3.78;;;;;;;;;;5087418;28;20706;-52
2022/03/04 02:54:08;;;;;;;5.25;3.78;;;;;;;;;;5085035;28;20112;-49
2022/03/04 02:56:34;;;;;;;7.45;3.67;;;;;;;;;;5092566;28;20107;-48
2022/03/04 02:59:00;;;;;;;6.97;3.70;;;;;;;;;;5088074;28;20491;-47
2022/03/04 03:01:26;;;;;;;11.30;3.95;;;;;;;;;;5074793;28;20461;-47
2022/03/04 03:03:52;;;;;;;5.22;3.35;;;;;;;;;;5084686;28;20511;-47
2022/03/04 03:06:18;;;;;;;10.23;3.90;;;;;;;;;;5088751;28;20681;-50
2022/03/04 03:08:44;;;;;;;6.75;3.28;;;;;;;;;;5074208;28;20027;-47
2022/03/04 03:11:10;;;;;;;9.30;4.10;;;;;;;;;;5090860;28;20024;-49
2022/03/04 03:13:36;;;;;;;9.55;4.68;;;;;;;;;;5088727;28;20103;-49
2022/03/04 03:16:02;;;;;;;6.93;3.90;;;;;;;;;;5088840;28;20036;-49
2022/03/04 03:18:28;;;;;;;6.32;3.90;;;;;;;;;;5082782;28;20032;-48
2022/03/04 03:20:54;;;;;;;5.35;3.70;;;;;;;;;;5085020;28;20074;-49
2022/03/04 03:23:20;;;;;;;7.93;4.05;;;;;;;;;;5081341;28;20448;-52
2022/03/04 03:25:46;;;;;;;6.85;3.30;;;;;;;;;;5082588;28;20020;-51
2022/03/04 03:28:12;;;;;;;6.90;4.00;;;;;;;;;;5086856;28;20039;-47
2022/03/04 03:30:38;;;;;;;10.90;4.22;;;;;;;;;;5088266;28;20036;-48
2022/03/04 03:33:04;;;;;;;6.95;3.58;;;;;;;;;;5090530;28;20028;-47
2022/03/04 03:35:30;;;;;;;10.02;3.95;;;;;;;;;;5091633;28;20510;-48
2022/03/04 03:37:56;;;;;;;8.65;4.10;;;;;;;;;;5089275;28;20035;-47
2022/03/04 03:40:22;;;;;;;6.95;3.53;;;;;;;;;;5085242;28;20099;-47
2022/03/04 03:42:48;;;;;;;9.57;3.60;;;;;;;;;;5085915;28;20103;-47
2022/03/04 03:45:14;;;;;;;5.20;3.47;;;;;;;;;;5077142;28;20032;-48
2022/03/04 03:47:41;;;;;;;15.27;4.20;;;;;;;;;;5089424;28;20028;-49
2022/03/04 03:50:09;;;;;;;8.88;3.75;;;;;;;;;;5083823;28;20032;-51
2022/03/04 03:52:35;;;;;;;14.75;4.10;;;;;;;;;;5075452;28;20519;-50
2022/03/04 03:55:01;;;;;;;7.75;3.88;;;;;;;;;;5078623;28;20032;-49
2022/03/04 03:57:27;;;;;;;8.88;3.88;;;;;;;;;;5079046;28;20785;-48
2022/03/04 03:59:53;;;;;;;6.18;3.88;;;;;;;;;;5079999;28;20028;-52
2022/03/04 04:02:19;;;;;;;9.77;3.17;;;;;;;;;;5078980;28;20035;-54
2022/03/04 04:04:46;;;;;;;7.68;3.20;;;;;;;;;;5083192;28;20024;-53
2022/03/04 04:07:12;;;;;;;7.82;3.80;;;;;;;;;;5088130;28;20103;-51
2022/03/04 04:09:38;;;;;;;6.68;3.78;;;;;;;;;;5075517;28;20081;-52
2022/03/04 04:12:04;;;;;;;8.05;3.92;;;;;;;;;;5086046;28;20070;-49
2022/03/04 04:14:31;;;;;;;7.40;3.63;;;;;;;;;;5085441;28;20537;-51
2022/03/04 04:16:57;;;;;;;7.10;3.42;;;;;;;;;;5087240;28;20052;-49
2022/03/04 04:19:23;;;;;;;10.07;4.10;;;;;;;;;;5076541;28;20038;-49
2022/03/04 04:21:50;;;;;;;7.07;3.60;;;;;;;;;;5079647;28;20366;-50
2022/03/04 04:24:16;;;;;;;5.93;3.50;;;;;;;;;;5079503;28;20114;-52
2022/03/04 04:26:42;;;;;;;5.05;3.28;;;;;;;;;;5091307;28;20103;-48
2022/03/04 04:29:09;;;;;;;11.43;3.50;;;;;;;;;;5080985;28;20062;-50
2022/03/04 04:31:35;;;;;;;5.95;3.53;;;;;;;;;;5086538;28;20120;-51
2022/03/04 04:34:01;;;;;;;4.55;2.80;;;;;;;;;;5088951;28;20032;-49
2022/03/04 04:36:28;;;;;;;7.47;3.50;;;;;;;;;;5075938;28;20372;-52
2022/03/04 04:38:54;;;;;;;6.47;3.42;;;;;;;;;;5075957;28;20059;-49
2022/03/04 04:41:20;;;;;;;7.82;3.33;;;;;;;;;;5086404;28;20027;-49
2022/03/04 04:43:46;;;;;;;6.85;3.85;;;;;;;;;;5074949;28;20107;-53
2022/03/04 04:46:13;;;;;;;5.95;2.90;;;;;;;;;;5085252;28;20507;-54
2022/03/04 04:48:39;;;;;;;8.77;3.42;;;;;;;;;;5078793;28;20029;-53
2022/03/04 04:51:05;;;;;;;7.70;3.60;;;;;;;;;;5084331;28;20107;-54
2022/03/04 04:53:32;;;;;;;5.10;2.80;;;;;;;;;;5079464;28;20111;-50
2022/03/04 04:55:57;;;;;;;5.90;2.85;;;;;;;;;;5082051;28;20031;-53
2022/03/04 04:58:23;;;;;;;10.88;3.65;;;;;;;;;;5084820;28;20032;-53
2022/03/04 05:00:56;;;;;;;5.32;3.03;;;;;;;;;;5079902;28;20365;-54
2022/03/04 05:03:22;;;;;;;6.10;2.58;;;;;;;;;;5085004;28;20016;-51
2022/03/04 05:05:48;;;;;;;4.35;3.10;;;;;;;;;;5086121;28;20698;-49
2022/03/04 05:08:14;;;;;;;8.88;3.50;;;;;;;;;;5081249;28;20027;-50
2022/03/04 05:10:40;;;;;;;8.70;3.67;;;;;;;;;;5077671;28;20107;-50
2022/03/04 05:13:06;;;;;;;6.93;3.05;;;;;;;;;;5083013;28;20062;-49
2022/03/04 05:15:32;;;;;;;8.55;3.00;;;;;;;;;;5084719;28;20107;-48
2022/03/04 05:17:58;;;;;;;5.97;2.95;;;;;;;;;;5076642;28;20440;-49
2022/03/04 05:20:24;;;;;;;5.03;2.58;;;;;;;;;;5085073;28;20032;-48
2022/03/04 05:22:50;;;;;;;7.38;3.03;;;;;;;;;;5076875;28;20024;-48
2022/03/04 05:25:16;;;;;;;10.77;3.30;;;;;;;;;;5080917;28;20020;-49
2022/03/04 05:27:42;;;;;;;4.82;2.47;;;;;;;;;;5081844;28;20034;-50
2022/03/04 05:30:08;;;;;;;9.70;3.13;;;;;;;;;;5085890;28;20158;-50
2022/03/04 05:32:34;;;;;;;4.05;2.78;;;;;;;;;;5080380;28;20463;-51
2022/03/04 05:35:00;;;;;;;5.47;2.53;;;;;;;;;;5082179;28;20039;-53
2022/03/04 05:37:26;;;;;;;7.35;2.70;;;;;;;;;;5080809;28;20040;-53
2022/03/04 05:39:52;;;;;;;5.47;3.13;;;;;;;;;;5085078;28;20085;-53
2022/03/04 05:42:19;;;;;;;6.55;3.05;;;;;;;;;;5080876;28;20032;-52
2022/03/04 05:44:45;;;;;;;9.35;3.15;;;;;;;;;;5075541;28;20071;-49
2022/03/04 05:47:11;;;;;;;7.43;2.50;;;;;;;;;;5081111;28;20036;-49
2022/03/04 05:49:37;;;;;;;7.07;2.50;;;;;;;;;;5084519;28;20033;-49
2022/03/04 05:52:04;;;;;;;4.85;3.08;;;;;;;;;;5085681;28;20046;-54
2022/03/04 05:54:30;;;;;;;4.47;2.50;;;;;;;;;;5083149;28;20038;-48
2022/03/04 05:56:56;;;;;;;10.23;2.50;;;;;;;;;;5084208;28;20464;-48
2022/03/04 05:59:22;;;;;;;8.68;2.90;;;;;;;;;;5078135;28;20046;-52
2022/03/04 06:01:48;;;;;;;8.98;3.10;;;;;;;;;;5074877;28;20028;-52
2022/03/04 06:04:14;;;;;;;4.55;3.20;;;;;;;;;;5078606;28;20031;-49
2022/03/04 06:06:40;;;;;;;7.75;2.80;;;;;;;;;;5080130;28;20452;-52
2022/03/04 06:09:06;;;;;;;8.68;3.15;;;;;;;;;;5078706;28;20036;-49
2022/03/04 06:11:32;;;;;;;7.90;2.88;;;;;;;;;;5087901;28;20039;-49
2022/03/04 06:13:58;;;;;;;5.05;2.65;;;;;;;;;;5085777;28;20119;-50
2022/03/04 06:16:24;;;;;;;3.20;2.20;;;;;;;;;;5087021;28;20074;-49
2022/03/04 06:18:51;;;;;;;4.97;3.15;;;;;;;;;;5088315;28;20555;-52
2022/03/04 06:21:17;;;;;;;5.35;3.25;;;;;;;;;;5077398;28;20017;-53
2022/03/04 06:23:43;;;;;;;4.97;3.00;;;;;;;;;;5084191;28;20035;-51
2022/03/04 06:26:09;;;;;;;7.20;3.15;;;;;;;;;;5083735;28;20033;-49
2022/03/04 06:28:35;;;;;;;4.45;2.70;;;;;;;;;;5077630;28;20025;-51
2022/03/04 06:31:01;;;;;;;10.40;3.50;;;;;;;;;;5084356;28;20016;-50
2022/03/04 06:33:30;;;;;;;4.68;2.60;;;;;;;;;;5080770;28;20028;-50
2022/03/04 06:35:56;;;;;;;7.15;3.58;;;;;;;;;;5088493;28;20012;-51
2022/03/04 06:38:23;;;;;;;5.32;3.65;;;;;;;;;;5078796;28;20025;-49
2022/03/04 06:40:50;;;;;;;4.68;3.10;;;;;;;;;;5081596;28;20149;-50
2022/03/04 06:43:16;;;;;;;8.35;3.30;;;;;;;;;;5088290;28;20703;-48
2022/03/04 06:45:43;;;;;;;10.02;3.40;;;;;;;;;;5082025;28;20122;-48
2022/03/04 06:48:10;;;;;;;5.50;3.55;;;;;;;;;;5084490;28;20033;-49
2022/03/04 06:50:36;;;;;;;6.43;3.17;;;;;;;;;;5089184;28;20034;-49
2022/03/04 06:53:02;;;;;;;6.20;3.08;;;;;;;;;;5083896;28;20071;-50
2022/03/04 06:55:28;;;;;;;7.57;2.95;;;;;;;;;;5080791;28;20023;-49
2022/03/04 06:57:55;;;;;;;6.93;3.40;;;;;;;;;;5087563;28;20089;-50
2022/03/04 07:00:21;;;;;;;5.85;2.47;;;;;;;;;;5084615;28;20032;-48
2022/03/04 07:02:47;;;;;;;8.07;3.53;;;;;;;;;;5082616;28;20399;-48
2022/03/04 07:05:13;;;;;;;5.57;2.65;;;;;;;;;;5082866;28;20035;-49
2022/03/04 07:07:39;;;;;;;6.75;3.38;;;;;;;;;;5077553;28;20028;-51
2022/03/04 07:10:06;;;;;;;3.78;3.20;;;;;;;;;;5084971;28;20491;-53
2022/03/04 07:12:32;;;;;;;5.35;2.63;;;;;;;;;;5083199;28;20112;-53
2022/03/04 07:14:58;;;;;;;4.80;2.67;;;;;;;;;;5085430;28;20024;-50
2022/03/04 07:17:24;;;;;;;4.75;2.33;;;;;;;;;;5078548;28;20077;-50
2022/03/04 07:19:50;;;;;;;5.65;2.45;;;;;;;;;;5083163;28;20384;-49
2022/03/04 07:22:16;;;;;;;3.95;2.17;;;;;;;;;;5079272;28;20020;-53
2022/03/04 07:24:42;;;;;;;6.60;2.50;;;;;;;;;;5086088;28;20095;-50
2022/03/04 07:27:08;;;;;;;4.88;2.25;;;;;;;;;;5083829;28;20162;-48
2022/03/04 07:29:34;;;;;;;4.88;1.85;;;;;;;;;;5074121;28;20047;-50
2022/03/04 07:32:00;;;;;;;4.55;2.30;;;;;;;;;;5076942;28;20033;-48
2022/03/04 07:34:26;;;;;;;3.72;2.10;;;;;;;;;;5079025;28;20055;-49
2022/03/04 07:36:52;;;;;;;6.72;2.45;;;;;;;;;;5087962;28;20415;-48
2022/03/04 07:39:19;;;;;;;5.03;2.63;;;;;;;;;;5080238;28;20407;-53
2022/03/04 07:41:45;;;;;;;5.20;1.92;;;;;;;;;;5083266;28;20035;-54
2022/03/04 07:44:11;;;;;;;4.40;2.20;;;;;;;;;;5082357;28;20059;-52
2022/03/04 07:46:37;;;;;;;3.63;1.95;;;;;;;;;;5081878;28;20024;-51
2022/03/04 07:49:04;;;;;;;4.72;2.00;;;;;;;;;;5081183;28;20047;-49
2022/03/04 07:51:30;;;;;;;8.98;2.20;;;;;;;;;;5082567;28;20468;-48
2022/03/04 07:53:56;;;;;;;2.58;1.73;;;;;;;;;;5088781;28;20066;-51
2022/03/04 07:56:22;;;;;;;5.90;2.33;;;;;;;;;;5085160;28;20456;-54
2022/03/04 07:58:48;;;;;;;6.10;2.60;;;;;;;;;;5082050;28;20032;-52
2022/03/04 08:01:14;;;;;;;3.33;2.03;;;;;;;;;;5080540;28;20025;-54
2022/03/04 08:03:42;;;;;;;6.50;2.03;;;;;;;;;;5074946;28;20151;-52
2022/03/04 08:06:08;;;;;;;8.25;2.42;;;;;;;;;;5080173;28;20662;-54
2022/03/04 08:08:34;;;;;;;6.28;2.30;;;;;;;;;;5080027;28;20032;-50
2022/03/04 08:11:00;;;;;;;4.55;2.25;;;;;;;;;;5077353;28;20020;-52
2022/03/04 08:13:27;;;;;;;5.25;2.00;;;;;;;;;;5083428;28;20016;-51
2022/03/04 08:15:53;;;;;;;7.55;2.20;;;;;;;;;;5074941;28;20033;-52
2022/03/04 08:18:19;;;;;;;4.03;2.45;;;;;;;;;;5087386;28;20142;-48
2022/03/04 08:20:45;;;;;;;4.65;2.17;;;;;;;;;;5091741;28;20032;-49
2022/03/04 08:23:14;;;;;;;2.95;1.92;;;;;;;;;;5088547;28;20073;-53
2022/03/04 08:25:40;;;;;;;6.45;2.50;;;;;;;;;;5083033;28;20066;-50
2022/03/04 08:28:06;;;;;;;5.80;2.67;;;;;;;;;;5087562;28;20384;-48
2022/03/04 08:30:32;;;;;;;6.45;2.45;;;;;;;;;;5076233;28;20036;-49
2022/03/04 08:32:59;;;;;;;5.18;2.10;;;;;;;;;;5079475;28;20058;-48
2022/03/04 08:35:25;;;;;;;3.58;2.08;;;;;;;;;;5085201;28;20061;-50
2022/03/04 08:37:52;;;;;;;7.95;2.30;;;;;;;;;;5078424;28;20078;-48
2022/03/04 08:40:18;;;;;;;5.05;2.28;;;;;;;;;;5075548;28;20388;-48
2022/03/04 08:42:44;;;;;;;5.43;2.15;;;;;;;;;;5091966;28;20081;-52
2022/03/04 08:45:10;;;;;;;5.00;2.60;;;;;;;;;;5085561;28;20123;-53
2022/03/04 08:47:38;;;;;;;4.00;2.17;;;;;;;;;;5084728;28;20029;-51
2022/03/04 08:50:05;;;;;;;6.55;2.20;;;;;;;;;;5084597;28;20051;-51
2022/03/04 08:52:31;;;;;;;2.75;1.92;;;;;;;;;;5088588;28;20035;-54
2022/03/04 08:54:57;;;;;;;3.95;1.70;;;;;;;;;;5092181;28;20020;-49
2022/03/04 08:57:23;;;;;;;3.15;1.70;;;;;;;;;;5088106;28;20037;-52
2022/03/04 08:59:49;;;;;;;4.82;1.60;;;;;;;;;;5085242;28;20276;-51
2022/03/04 09:02:15;;;;;;;3.08;2.15;;;;;;;;;;5080494;28;20036;-48
2022/03/04 09:04:41;;;;;;;4.43;2.47;;;;;;;;;;5085407;28;20024;-48
2022/03/04 09:07:07;;;;;;;5.07;2.28;;;;;;;;;;5087332;28;20024;-48
2022/03/04 09:09:34;;;;;;;4.03;2.42;;;;;;;;;;5085419;28;20017;-49
2022/03/04 09:12:00;;;;;;;7.97;2.65;;;;;;;;;;5090625;28;20094;-48
2022/03/04 09:14:26;;;;;;;5.38;2.33;;;;;;;;;;5082240;28;20521;-48
2022/03/04 09:16:53;;;;;;;5.00;2.20;;;;;;;;;;5087678;28;20032;-49
2022/03/04 09:19:19;;;;;;;5.25;2.67;;;;;;;;;;5085547;28;20456;-51
2022/03/04 09:21:47;;;;;;;7.93;3.50;;;;;;;;;;5085986;28;20475;-50
2022/03/04 09:24:13;;;;;;;4.68;2.38;;;;;;;;;;5078244;28;20028;-48
2022/03/04 09:26:39;;;;;;;5.40;2.67;;;;;;;;;;5080646;28;20471;-52
2022/03/04 09:29:05;;;;;;;6.72;2.45;;;;;;;;;;5075872;28;20036;-48
2022/03/04 09:31:32;;;;;;;3.95;2.05;;;;;;;;;;5080683;28;20508;-53
2022/03/04 09:33:58;;;;;;;7.70;3.10;;;;;;;;;;5088050;28;20035;-52
2022/03/04 09:36:24;;;;;;;5.90;2.67;;;;;;;;;;5092058;28;20032;-50
2022/03/04 09:38:50;;;;;;;6.10;2.20;;;;;;;;;;5087511;28;20047;-50
2022/03/04 09:41:16;;;;;;;5.47;2.85;;;;;;;;;;5078674;28;20032;-52
2022/03/04 09:43:42;;;;;;;6.30;2.13;;;;;;;;;;5093426;28;20735;-49
2022/03/04 09:46:08;;;;;;;5.82;2.03;;;;;;;;;;5082973;28;20031;-49
2022/03/04 09:48:39;;;;;;;3.97;1.50;;;;;;;;;;5082594;28;20150;-50
2022/03/04 09:51:06;;;;;;;3.25;1.70;;;;;;;;;;5095196;28;20032;-49
2022/03/04 09:53:32;;;;;;;5.30;1.75;;;;;;;;;;5093614;28;20031;-48
2022/03/04 09:55:58;;;;;;;2.53;1.73;;;;;;;;;;5085468;28;20361;-51
2022/03/04 09:58:24;;;;;;;3.88;1.42;;;;;;;;;;5076698;28;20109;-51
2022/03/04 10:00:50;;;;;;;4.25;1.90;;;;;;;;;;5089838;28;20028;-49
2022/03/04 10:03:20;;;;;;;5.07;1.50;;;;;;;;;;5082473;28;20489;-49
2022/03/04 10:05:53;;;;;;;6.43;2.20;;;;;;;;;;5093898;28;20028;-53
2022/03/04 10:08:20;;;;;;;3.58;2.08;;;;;;;;;;5081653;28;20028;-49
2022/03/04 10:10:53;;;;;;;4.20;2.05;;;;;;;;;;5088967;28;20495;-50
2022/03/04 10:13:39;;;;;;;5.20;1.90;;;;;;;;;;5089784;28;20078;-52
2022/03/04 10:16:05;;;;;;;3.53;1.65;;;;;;;;;;5088821;28;20119;-55
2022/03/04 10:18:31;;;;;;;5.72;2.03;;;;;;;;;;5087261;28;20036;-48
2022/03/04 10:20:57;;;;;;;4.43;2.17;;;;;;;;;;5083560;28;20036;-48
2022/03/04 10:23:24;;;;;;;4.25;2.45;;;;;;;;;;5091911;28;20133;-48
2022/03/04 10:25:52;;;;;;;6.13;2.10;;;;;;;;;;5081437;28;20036;-48
2022/03/04 10:28:18;;;;;;;4.43;2.40;;;;;;;;;;5084516;28;20036;-49
2022/03/04 10:30:46;;;;;;;7.38;2.47;;;;;;;;;;5089602;28;20123;-50
2022/03/04 10:33:15;;;;;;;3.08;1.83;;;;;;;;;;5094084;28;20076;-54
2022/03/04 10:35:41;;;;;;;3.30;1.70;;;;;;;;;;5086532;28;20050;-51
2022/03/04 10:38:17;;;;;;;2.80;2.05;;;;;;;;;;5088381;28;20446;-50
2022/03/04 10:40:43;;;;;;;3.65;1.80;;;;;;;;;;5091455;28;20028;-53
2022/03/04 10:43:09;;;;;;;4.00;1.80;;;;;;;;;;5087926;28;20475;-53
2022/03/04 10:45:40;;;;;;;2.10;1.40;;;;;;;;;;5080077;28;20024;-53
2022/03/04 10:48:08;;;;;;;8.65;1.70;;;;;;;;;;5086316;28;20035;-50
2022/03/04 10:50:35;;;;;;;3.53;1.70;;;;;;;;;;5089432;28;20134;-49
2022/03/04 10:53:02;;;;;;;5.13;1.48;;;;;;;;;;5084990;28;20040;-48
2022/03/04 10:55:35;;;;;;;3.47;1.63;;;;;;;;;;5094293;28;20009;-54
2022/03/04 10:58:01;;;;;;;;;;;;;;;;;;5086241;28;20035;-52
2022/03/04 11:00:28;;;;;;;3.40;1.30;;;;;;;;;;5081817;28;20355;-51
2022/03/04 11:02:54;;;;;;;3.33;1.75;;;;;;;;;;5079707;28;20119;-54
2022/03/04 11:05:22;;;;;;;2.65;1.50;;;;;;;;;;5080576;28;20063;-49
2022/03/04 11:07:48;;;;;;;2.05;1.38;;;;;;;;;;5085976;28;20090;-48
2022/03/04 11:10:14;;;;;;;1.75;1.30;;;;;;;;;;5081224;28;20028;-48
2022/03/04 11:12:42;;;;;;;6.63;1.63;;;;;;;;;;5091841;28;20032;-49
2022/03/04 11:15:10;;;;;;;2.20;1.20;;;;;;;;;;5087864;28;20028;-49
2022/03/04 11:17:36;;;;;;;2.60;1.65;;;;;;;;;;5077160;28;20115;-48
2022/03/04 11:20:03;;;;;;;2.45;1.50;;;;;;;;;;5080704;28;20346;-49
2022/03/04 11:22:29;;;;;;;4.18;1.70;;;;;;;;;;5075186;28;20025;-52
2022/03/04 11:25:01;;;;;;;2.45;1.15;;;;;;;;;;5088337;28;20426;-51
2022/03/04 11:27:29;;;;;;;4.43;1.60;;;;;;;;;;5087407;28;20736;-49
2022/03/04 11:29:58;;;;;;;3.33;1.65;;;;;;;;;;5083062;28;20093;-47
2022/03/04 11:32:30;;;;;;;5.20;1.30;;;;;;;;;;5087501;28;20032;-48
2022/03/04 11:34:56;;;;;;;2.85;1.48;;;;;;;;;;5092441;28;20032;-52
2022/03/04 11:37:23;;;;;;;2.83;1.38;;;;;;;;;;5092538;28;20028;-52
2022/03/04 11:40:02;;;;;;;4.63;1.95;;;;;;;;;;5089646;28;20032;-52
2022/03/04 11:42:36;;;;;;;3.05;1.20;;;;;;;;;;5090986;28;20032;-50
2022/03/04 11:45:02;;;;;;;2.80;1.40;;;;;;;;;;5086384;28;20032;-54
2022/03/04 11:47:29;;;;;;;2.33;1.10;;;;;;;;;;5084213;28;20036;-53
2022/03/04 11:49:55;;;;;;;2.78;1.15;;;;;;;;;;5074423;28;20143;-52
2022/03/04 11:52:21;;;;;;;3.20;1.25;;;;;;;;;;5085190;28;20123;-48
2022/03/04 11:54:53;;;;;;;1.35;0.80;;;;;;;;;;5088018;28;20036;-49
2022/03/04 11:57:26;;;;;;;5.05;1.35;;;;;;;;;;5087430;28;20400;-54
2022/03/04 11:59:55;;;;;;;4.63;0.88;;;;;;;;;;5090325;28;20555;-49
2022/03/04 12:02:26;;;;;;;2.85;0.82;;;;;;;;;;5090647;28;20052;-48
2022/03/04 12:05:11;;;;;;;1.92;0.82;;;;;;;;;;5092123;28;20024;-53
2022/03/04 12:07:37;;;;;;;1.67;1.20;;;;;;;;;;5082136;28;20017;-49
2022/03/04 12:10:03;;;;;;;2.45;1.35;;;;;;;;;;5081234;28;20024;-50
2022/03/04 12:12:29;;;;;;;4.22;1.60;;;;;;;;;;5080688;28;20036;-50
2022/03/04 12:15:18;;;;;;;3.78;2.10;;;;;;;;;;5083110;28;20078;-53
2022/03/04 12:17:51;;;;;;;2.63;1.80;;;;;;;;;;5089543;28;20028;-50
2022/03/04 12:20:26;;;;;;;2.30;1.20;;;;;;;;;;5082051;28;20105;-51
2022/03/04 12:22:57;;;;;;;3.22;1.40;;;;;;;;;;5084172;28;20047;-51
2022/03/04 12:25:23;;;;;;;3.65;1.90;;;;;;;;;;5073268;28;20024;-54
2022/03/04 12:27:54;;;;;;;3.08;1.27;;;;;;;;;;5086003;28;20028;-50
2022/03/04 12:30:22;;;;;;;2.92;1.20;;;;;;;;;;5075688;28;20020;-54
2022/03/04 12:32:52;;;;;;;3.58;1.13;;;;;;;;;;5086981;28;20024;-54
2022/03/04 12:35:19;;;;;;;2.03;0.80;;;;;;;;;;5077375;28;20032;-49
2022/03/04 12:37:45;;;;;;;2.92;0.93;;;;;;;;;;5084955;28;20673;-49
2022/03/04 12:40:12;;;;;;;1.75;0.90;;;;;;;;;;5074490;28;20637;-49
2022/03/04 12:42:38;;;;;;;1.80;0.82;;;;;;;;;;5075964;28;20119;-50
2022/03/04 12:45:09;;;;;;;2.50;0.75;;;;;;;;;;5081385;28;20456;-48
2022/03/04 12:47:36;;;;;;;6.72;1.00;;;;;;;;;;5089787;28;20020;-49
2022/03/04 12:50:03;;;;;;;2.10;0.68;;;;;;;;;;5074817;28;20392;-49
2022/03/04 12:52:29;;;;;;;4.22;0.77;;;;;;;;;;5082363;28;20349;-49
2022/03/04 12:55:01;;;;;;;0.98;0.63;;;;;;;;;;5082573;28;20025;-50
2022/03/04 12:57:27;;;;;;;2.35;1.15;;;;;;;;;;5079025;28;20043;-53
2022/03/04 12:59:53;;;;;;;1.90;0.80;;;;;;;;;;5076980;28;20024;-54
2022/03/04 13:02:19;;;;;;;1.40;1.00;;;;;;;;;;5076100;28;20036;-50
2022/03/04 13:04:59;;;;;;;1.45;0.90;;;;;;;;;;5096205;28;20020;-55
2022/03/04 13:07:25;;;;;;;1.80;1.10;;;;;;;;;;5087341;28;20372;-53
2022/03/04 13:09:51;;;;;;;4.15;0.90;;;;;;;;;;5087301;28;20667;-52
2022/03/04 13:12:21;;;;;;;2.20;1.17;;;;;;;;;;5091700;28;20032;-54
2022/03/04 13:14:47;;;;;;;2.90;0.90;;;;;;;;;;5085911;28;20024;-52
2022/03/04 13:17:13;;;;;;;1.67;0.75;;;;;;;;;;5094356;28;20035;-53
2022/03/04 13:19:40;;;;;;;3.03;1.00;;;;;;;;;;5095720;28;20072;-49
2022/03/04 13:22:07;;;;;;;2.75;1.40;;;;;;;;;;5089226;28;20130;-50
2022/03/04 13:24:34;;;;;;;3.38;1.38;;;;;;;;;;5080163;28;20024;-48
2022/03/04 13:27:10;;;;;;;2.10;0.95;;;;;;;;;;5083355;28;20055;-52
2022/03/04 13:29:38;;;;;;;3.03;1.20;;;;;;;;;;5085064;28;20407;-50
2022/03/04 13:32:10;;;;;;;2.05;1.48;;;;;;;;;;5095764;28;20871;-48
2022/03/04 13:34:37;;;;;;;2.97;1.30;;;;;;;;;;5095700;28;20058;-54
2022/03/04 13:37:07;;;;;;;4.75;1.60;;;;;;;;;;5095392;28;20047;-50
2022/03/04 13:39:34;;;;;;;2.90;1.40;;;;;;;;;;5092902;28;20032;-49
2022/03/04 13:42:26;;;;;;;3.67;1.20;;;;;;;;;;5087905;28;20039;-53
2022/03/04 13:44:54;;;;;;;3.50;1.05;;;;;;;;;;5078470;28;20110;-52
2022/03/04 13:47:39;;;;;;;1.98;0.80;;;;;;;;;;5085531;28;20055;-51
2022/03/04 13:50:08;;;;;;;3.28;0.80;;;;;;;;;;5082951;28;20111;-49
2022/03/04 13:52:47;;;;;;;2.53;0.93;;;;;;;;;;5084522;28;20136;-54
2022/03/04 13:55:13;;;;;;;1.73;0.85;;;;;;;;;;5091173;28;20081;-51
2022/03/04 13:57:40;;;;;;;3.17;1.00;;;;;;;;;;5076728;28;20036;-54
2022/03/04 14:00:16;;;;;;;1.85;1.05;;;;;;;;;;5088817;28;20040;-54
2022/03/04 14:02:46;;;;;;;6.35;4.82;;;;;;;;;;5090933;28;20070;-53
2022/03/04 14:05:26;;;;;;;3.08;2.55;;;;;;;;;;5080300;28;20361;-49
2022/03/04 14:08:00;;;;;;;1.10;0.93;;;;;;;;;;5095242;28;20020;-54
2022/03/04 14:10:27;;;;;;;1.30;1.20;;;;;;;;;;5086320;28;20028;-51
2022/03/04 14:12:53;;;;;;;2.35;1.20;;;;;;;;;;5090045;28;20024;-52
2022/03/04 14:15:19;;;;;;;1.75;1.30;;;;;;;;;;5079656;28;20024;-52
2022/03/04 14:17:46;;;;;;;6.05;1.40;;;;;;;;;;5083008;28;20131;-51
2022/03/04 14:20:12;;;;;;;2.33;1.35;;;;;;;;;;5089351;28;20070;-51
2022/03/04 14:22:38;;;;;;;1.75;1.05;;;;;;;;;;5082405;28;20017;-50
2022/03/04 14:25:04;;;;;;;4.18;1.27;;;;;;;;;;5087723;28;20028;-50
2022/03/04 14:27:30;;;;;;;5.97;1.48;;;;;;;;;;5077130;28;20052;-49
2022/03/04 14:29:56;;;;;;;2.17;1.23;;;;;;;;;;5087472;28;20063;-51
2022/03/04 14:32:22;;;;;;;3.25;1.50;;;;;;;;;;5089437;28;20039;-49
2022/03/04 14:34:48;;;;;;;5.18;1.40;;;;;;;;;;5083131;28;20032;-52
2022/03/04 14:37:14;;;;;;;2.35;0.93;;;;;;;;;;5086385;28;20144;-54
2022/03/04 14:39:40;;;;;;;1.70;1.05;;;;;;;;;;5083803;28;20032;-54